sensor_id;sensor_type;location;lat;lon;timestamp;P1;durP1;ratioP1;P2;durP2;ratioP2
16254;SDS011;8235;52.198;9.904;2022-10-31T00:00:00;9.07;;;4.60;;
16254;SDS011;8235;52.198;9.904;2022-10-31T00:02:26;7.77;;;4.60;;
16254;SDS011;8235;52.198;9.904;2022-10-31T00:04:52;6.53;;;4.50;;
16254;SDS011;8235;52.198;9.904;2022-10-31T00:07:19;8.30;;;4.33;;
16254;SDS011;8235;52.198;9.904;2022-10-31T00:09:45;10.50;;;3.87;;
16254;SDS011;8235;52.198;9.904;2022-10-31T00:12:13;7.87;;;4.00;;
16254;SDS011;8235;52.198;9.904;2022-10-31T00:14:40;8.40;;;4.67;;
16254;SDS011;8235;52.198;9.904;2022-10-31T00:17:06;7.53;;;4.07;;
16254;SDS011;8235;52.198;9.904;2022-10-31T00:19:32;9.50;;;4.27;;
16254;SDS011;8235;52.198;9.904;2022-10-31T00:21:59;8.07;;;4.10;;
16254;SDS011;8235;52.198;9.904;2022-10-31T00:24:25;8.77;;;3.90;;
16254;SDS011;8235;52.198;9.904;2022-10-31T00:26:52;5.97;;;4.00;;
16254;SDS011;8235;52.198;9.904;2022-10-31T00:29:19;5.07;;;4.17;;
16254;SDS011;8235;52.198;9.904;2022-10-31T00:31:46;7.33;;;4.20;;
16254;SDS011;8235;52.198;9.904;2022-10-31T00:34:12;9.53;;;4.83;;
16254;SDS011;8235;52.198;9.904;2022-10-31T00:36:39;9.77;;;4.67;;
16254;SDS011;8235;52.198;9.904;2022-10-31T00:39:05;7.90;;;4.47;;
16254;SDS011;8235;52.198;9.904;2022-10-31T00:41:32;6.83;;;4.67;;
16254;SDS011;8235;52.198;9.904;2022-10-31T00:43:58;9.43;;;4.30;;
16254;SDS011;8235;52.198;9.904;2022-10-31T00:46:26;6.80;;;3.93;;
16254;SDS011;8235;52.198;9.904;2022-10-31T00:48:52;9.17;;;5.07;;
16254;SDS011;8235;52.198;9.904;2022-10-31T00:51:19;10.30;;;5.80;;
16254;SDS011;8235;52.198;9.904;2022-10-31T00:53:45;8.73;;;4.10;;
16254;SDS011;8235;52.198;9.904;2022-10-31T00:56:12;13.63;;;5.30;;
16254;SDS011;8235;52.198;9.904;2022-10-31T00:58:38;7.23;;;5.20;;
16254;SDS011;8235;52.198;9.904;2022-10-31T01:01:05;9.43;;;5.63;;
16254;SDS011;8235;52.198;9.904;2022-10-31T01:03:33;9.13;;;5.20;;
16254;SDS011;8235;52.198;9.904;2022-10-31T01:06:00;10.77;;;5.77;;
16254;SDS011;8235;52.198;9.904;2022-10-31T01:08:28;13.23;;;6.00;;
16254;SDS011;8235;52.198;9.904;2022-10-31T01:10:59;9.43;;;6.00;;
16254;SDS011;8235;52.198;9.904;2022-10-31T01:13:26;11.73;;;6.73;;
16254;SDS011;8235;52.198;9.904;2022-10-31T01:15:53;10.33;;;6.47;;
16254;SDS011;8235;52.198;9.904;2022-10-31T01:18:20;10.83;;;7.10;;
16254;SDS011;8235;52.198;9.904;2022-10-31T01:20:48;14.60;;;7.20;;
16254;SDS011;8235;52.198;9.904;2022-10-31T01:23:23;13.80;;;6.63;;
16254;SDS011;8235;52.198;9.904;2022-10-31T01:25:49;9.63;;;7.33;;
16254;SDS011;8235;52.198;9.904;2022-10-31T01:28:15;12.13;;;6.93;;
16254;SDS011;8235;52.198;9.904;2022-10-31T01:30:42;16.77;;;7.70;;
16254;SDS011;8235;52.198;9.904;2022-10-31T01:33:08;10.93;;;7.27;;
16254;SDS011;8235;52.198;9.904;2022-10-31T01:35:35;12.70;;;7.60;;
16254;SDS011;8235;52.198;9.904;2022-10-31T01:38:03;10.90;;;7.50;;
16254;SDS011;8235;52.198;9.904;2022-10-31T01:40:29;11.30;;;7.57;;
16254;SDS011;8235;52.198;9.904;2022-10-31T01:42:55;15.33;;;7.23;;
16254;SDS011;8235;52.198;9.904;2022-10-31T01:45:22;12.40;;;7.23;;
16254;SDS011;8235;52.198;9.904;2022-10-31T01:47:49;10.43;;;7.33;;
16254;SDS011;8235;52.198;9.904;2022-10-31T01:50:21;14.57;;;8.00;;
16254;SDS011;8235;52.198;9.904;2022-10-31T01:52:54;11.83;;;7.60;;
16254;SDS011;8235;52.198;9.904;2022-10-31T01:55:22;12.90;;;8.90;;
16254;SDS011;8235;52.198;9.904;2022-10-31T01:57:53;11.60;;;8.47;;
16254;SDS011;8235;52.198;9.904;2022-10-31T02:00:23;17.50;;;8.50;;
16254;SDS011;8235;52.198;9.904;2022-10-31T02:02:50;14.47;;;8.67;;
16254;SDS011;8235;52.198;9.904;2022-10-31T02:05:18;13.60;;;9.43;;
16254;SDS011;8235;52.198;9.904;2022-10-31T02:07:48;15.43;;;9.63;;
16254;SDS011;8235;52.198;9.904;2022-10-31T02:10:22;16.67;;;9.93;;
16254;SDS011;8235;52.198;9.904;2022-10-31T02:12:50;18.67;;;10.80;;
16254;SDS011;8235;52.198;9.904;2022-10-31T02:15:18;14.37;;;10.47;;
16254;SDS011;8235;52.198;9.904;2022-10-31T02:17:44;18.77;;;11.67;;
16254;SDS011;8235;52.198;9.904;2022-10-31T02:20:13;20.90;;;12.00;;
16254;SDS011;8235;52.198;9.904;2022-10-31T02:22:48;21.37;;;12.63;;
16254;SDS011;8235;52.198;9.904;2022-10-31T02:25:41;20.37;;;12.60;;
16254;SDS011;8235;52.198;9.904;2022-10-31T02:28:30;18.87;;;11.23;;
16254;SDS011;8235;52.198;9.904;2022-10-31T02:31:18;18.50;;;12.50;;
16254;SDS011;8235;52.198;9.904;2022-10-31T02:33:52;18.13;;;12.20;;
16254;SDS011;8235;52.198;9.904;2022-10-31T02:36:23;26.63;;;12.40;;
16254;SDS011;8235;52.198;9.904;2022-10-31T02:39:00;23.67;;;12.10;;
16254;SDS011;8235;52.198;9.904;2022-10-31T02:41:39;23.67;;;12.47;;
16254;SDS011;8235;52.198;9.904;2022-10-31T02:44:15;22.40;;;12.93;;
16254;SDS011;8235;52.198;9.904;2022-10-31T02:46:49;21.47;;;13.23;;
16254;SDS011;8235;52.198;9.904;2022-10-31T02:49:22;21.40;;;12.80;;
16254;SDS011;8235;52.198;9.904;2022-10-31T02:51:53;19.40;;;12.70;;
16254;SDS011;8235;52.198;9.904;2022-10-31T02:54:21;18.00;;;11.80;;
16254;SDS011;8235;52.198;9.904;2022-10-31T02:56:50;18.97;;;12.67;;
16254;SDS011;8235;52.198;9.904;2022-10-31T02:59:19;23.00;;;11.73;;
16254;SDS011;8235;52.198;9.904;2022-10-31T03:01:57;19.13;;;11.33;;
16254;SDS011;8235;52.198;9.904;2022-10-31T03:07:29;23.87;;;13.43;;
16254;SDS011;8235;52.198;9.904;2022-10-31T03:10:04;21.43;;;12.50;;
16254;SDS011;8235;52.198;9.904;2022-10-31T03:12:38;24.97;;;13.63;;
16254;SDS011;8235;52.198;9.904;2022-10-31T03:15:12;24.87;;;13.43;;
16254;SDS011;8235;52.198;9.904;2022-10-31T03:17:49;19.87;;;13.03;;
16254;SDS011;8235;52.198;9.904;2022-10-31T03:20:21;17.90;;;11.80;;
16254;SDS011;8235;52.198;9.904;2022-10-31T03:22:53;16.30;;;10.53;;
16254;SDS011;8235;52.198;9.904;2022-10-31T03:25:22;17.47;;;10.83;;
16254;SDS011;8235;52.198;9.904;2022-10-31T03:27:49;13.60;;;9.87;;
16254;SDS011;8235;52.198;9.904;2022-10-31T03:30:17;15.63;;;10.67;;
16254;SDS011;8235;52.198;9.904;2022-10-31T03:32:45;16.33;;;9.70;;
16254;SDS011;8235;52.198;9.904;2022-10-31T03:35:17;15.43;;;10.60;;
16254;SDS011;8235;52.198;9.904;2022-10-31T03:37:46;18.93;;;10.50;;
16254;SDS011;8235;52.198;9.904;2022-10-31T03:40:15;19.80;;;11.23;;
16254;SDS011;8235;52.198;9.904;2022-10-31T03:42:46;18.93;;;10.37;;
16254;SDS011;8235;52.198;9.904;2022-10-31T03:45:19;21.17;;;11.07;;
16254;SDS011;8235;52.198;9.904;2022-10-31T03:47:51;19.13;;;11.47;;
16254;SDS011;8235;52.198;9.904;2022-10-31T03:50:18;18.70;;;10.73;;
16254;SDS011;8235;52.198;9.904;2022-10-31T03:52:48;19.70;;;11.60;;
16254;SDS011;8235;52.198;9.904;2022-10-31T03:55:23;18.07;;;11.33;;
16254;SDS011;8235;52.198;9.904;2022-10-31T03:57:55;24.07;;;12.40;;
16254;SDS011;8235;52.198;9.904;2022-10-31T04:00:25;20.17;;;11.43;;
16254;SDS011;8235;52.198;9.904;2022-10-31T04:02:55;17.53;;;12.50;;
16254;SDS011;8235;52.198;9.904;2022-10-31T04:05:26;20.53;;;11.83;;
16254;SDS011;8235;52.198;9.904;2022-10-31T04:07:54;19.57;;;12.40;;
16254;SDS011;8235;52.198;9.904;2022-10-31T04:10:23;17.67;;;11.67;;
16254;SDS011;8235;52.198;9.904;2022-10-31T04:12:52;19.00;;;12.13;;
16254;SDS011;8235;52.198;9.904;2022-10-31T04:15:24;16.07;;;11.57;;
16254;SDS011;8235;52.198;9.904;2022-10-31T04:17:55;19.40;;;12.07;;
16254;SDS011;8235;52.198;9.904;2022-10-31T04:20:30;21.53;;;12.17;;
16254;SDS011;8235;52.198;9.904;2022-10-31T04:22:58;19.37;;;12.13;;
16254;SDS011;8235;52.198;9.904;2022-10-31T04:25:25;19.03;;;12.67;;
16254;SDS011;8235;52.198;9.904;2022-10-31T04:27:51;19.93;;;12.53;;
16254;SDS011;8235;52.198;9.904;2022-10-31T04:30:18;18.00;;;12.43;;
16254;SDS011;8235;52.198;9.904;2022-10-31T04:32:44;23.20;;;13.73;;
16254;SDS011;8235;52.198;9.904;2022-10-31T04:35:12;26.13;;;15.87;;
16254;SDS011;8235;52.198;9.904;2022-10-31T04:37:39;25.37;;;15.07;;
16254;SDS011;8235;52.198;9.904;2022-10-31T04:40:05;31.23;;;18.40;;
16254;SDS011;8235;52.198;9.904;2022-10-31T04:42:33;31.30;;;16.27;;
16254;SDS011;8235;52.198;9.904;2022-10-31T04:44:59;29.17;;;17.23;;
16254;SDS011;8235;52.198;9.904;2022-10-31T04:47:25;24.57;;;13.80;;
16254;SDS011;8235;52.198;9.904;2022-10-31T04:49:52;21.17;;;12.83;;
16254;SDS011;8235;52.198;9.904;2022-10-31T04:52:20;19.13;;;12.07;;
16254;SDS011;8235;52.198;9.904;2022-10-31T04:54:46;18.73;;;12.43;;
16254;SDS011;8235;52.198;9.904;2022-10-31T04:57:13;16.83;;;12.73;;
16254;SDS011;8235;52.198;9.904;2022-10-31T04:59:39;18.03;;;12.87;;
16254;SDS011;8235;52.198;9.904;2022-10-31T05:02:05;24.07;;;14.17;;
16254;SDS011;8235;52.198;9.904;2022-10-31T05:04:32;18.10;;;13.13;;
16254;SDS011;8235;52.198;9.904;2022-10-31T05:06:58;18.80;;;13.17;;
16254;SDS011;8235;52.198;9.904;2022-10-31T05:09:26;24.63;;;14.53;;
16254;SDS011;8235;52.198;9.904;2022-10-31T05:11:53;21.83;;;14.00;;
16254;SDS011;8235;52.198;9.904;2022-10-31T05:14:19;21.43;;;14.23;;
16254;SDS011;8235;52.198;9.904;2022-10-31T05:16:45;22.80;;;13.57;;
16254;SDS011;8235;52.198;9.904;2022-10-31T05:19:12;19.83;;;13.93;;
16254;SDS011;8235;52.198;9.904;2022-10-31T05:21:38;25.17;;;14.90;;
16254;SDS011;8235;52.198;9.904;2022-10-31T05:24:05;27.50;;;14.80;;
16254;SDS011;8235;52.198;9.904;2022-10-31T05:26:33;23.17;;;14.13;;
16254;SDS011;8235;52.198;9.904;2022-10-31T05:29:00;30.37;;;15.00;;
16254;SDS011;8235;52.198;9.904;2022-10-31T05:31:26;26.43;;;14.20;;
16254;SDS011;8235;52.198;9.904;2022-10-31T05:33:53;30.73;;;15.23;;
16254;SDS011;8235;52.198;9.904;2022-10-31T05:36:19;26.50;;;15.40;;
16254;SDS011;8235;52.198;9.904;2022-10-31T05:38:46;24.73;;;14.83;;
16254;SDS011;8235;52.198;9.904;2022-10-31T05:41:12;26.70;;;15.40;;
16254;SDS011;8235;52.198;9.904;2022-10-31T05:43:40;29.83;;;16.20;;
16254;SDS011;8235;52.198;9.904;2022-10-31T05:46:06;25.47;;;14.83;;
16254;SDS011;8235;52.198;9.904;2022-10-31T05:48:33;29.10;;;15.00;;
16254;SDS011;8235;52.198;9.904;2022-10-31T05:50:59;31.13;;;15.20;;
16254;SDS011;8235;52.198;9.904;2022-10-31T05:53:25;21.73;;;14.20;;
16254;SDS011;8235;52.198;9.904;2022-10-31T05:55:52;25.27;;;15.33;;
16254;SDS011;8235;52.198;9.904;2022-10-31T05:58:18;26.43;;;14.70;;
16254;SDS011;8235;52.198;9.904;2022-10-31T06:00:46;23.00;;;14.67;;
16254;SDS011;8235;52.198;9.904;2022-10-31T06:03:13;24.83;;;14.73;;
16254;SDS011;8235;52.198;9.904;2022-10-31T06:05:39;23.37;;;14.10;;
16254;SDS011;8235;52.198;9.904;2022-10-31T06:08:05;28.93;;;15.83;;
16254;SDS011;8235;52.198;9.904;2022-10-31T06:10:32;22.93;;;14.43;;
16254;SDS011;8235;52.198;9.904;2022-10-31T06:12:58;20.47;;;13.33;;
16254;SDS011;8235;52.198;9.904;2022-10-31T06:15:25;30.90;;;15.03;;
16254;SDS011;8235;52.198;9.904;2022-10-31T06:18:02;24.47;;;14.57;;
16254;SDS011;8235;52.198;9.904;2022-10-31T06:20:30;24.83;;;14.30;;
16254;SDS011;8235;52.198;9.904;2022-10-31T06:22:57;21.63;;;12.80;;
16254;SDS011;8235;52.198;9.904;2022-10-31T06:25:24;24.37;;;13.57;;
16254;SDS011;8235;52.198;9.904;2022-10-31T06:27:51;22.07;;;13.77;;
16254;SDS011;8235;52.198;9.904;2022-10-31T06:30:17;23.23;;;13.43;;
16254;SDS011;8235;52.198;9.904;2022-10-31T06:32:43;22.03;;;13.40;;
16254;SDS011;8235;52.198;9.904;2022-10-31T06:35:11;29.57;;;14.37;;
16254;SDS011;8235;52.198;9.904;2022-10-31T06:37:38;20.73;;;13.40;;
16254;SDS011;8235;52.198;9.904;2022-10-31T06:40:05;19.50;;;13.40;;
16254;SDS011;8235;52.198;9.904;2022-10-31T06:42:32;19.37;;;13.10;;
16254;SDS011;8235;52.198;9.904;2022-10-31T06:44:58;26.60;;;13.53;;
16254;SDS011;8235;52.198;9.904;2022-10-31T06:47:24;21.73;;;12.83;;
16254;SDS011;8235;52.198;9.904;2022-10-31T06:49:51;22.93;;;14.03;;
16254;SDS011;8235;52.198;9.904;2022-10-31T06:52:19;27.83;;;14.10;;
16254;SDS011;8235;52.198;9.904;2022-10-31T06:54:45;23.13;;;14.80;;
16254;SDS011;8235;52.198;9.904;2022-10-31T06:57:12;26.20;;;13.90;;
16254;SDS011;8235;52.198;9.904;2022-10-31T06:59:38;20.80;;;14.40;;
16254;SDS011;8235;52.198;9.904;2022-10-31T07:02:04;21.73;;;13.50;;
16254;SDS011;8235;52.198;9.904;2022-10-31T07:04:31;22.67;;;13.43;;
16254;SDS011;8235;52.198;9.904;2022-10-31T07:06:57;22.93;;;14.17;;
16254;SDS011;8235;52.198;9.904;2022-10-31T07:09:25;23.07;;;14.63;;
16254;SDS011;8235;52.198;9.904;2022-10-31T07:11:52;24.07;;;14.33;;
16254;SDS011;8235;52.198;9.904;2022-10-31T07:14:19;27.53;;;14.27;;
16254;SDS011;8235;52.198;9.904;2022-10-31T07:16:47;29.93;;;15.67;;
16254;SDS011;8235;52.198;9.904;2022-10-31T07:19:14;27.90;;;15.43;;
16254;SDS011;8235;52.198;9.904;2022-10-31T07:21:40;25.13;;;15.97;;
16254;SDS011;8235;52.198;9.904;2022-10-31T07:24:07;26.50;;;15.33;;
16254;SDS011;8235;52.198;9.904;2022-10-31T07:26:35;28.93;;;15.80;;
16254;SDS011;8235;52.198;9.904;2022-10-31T07:29:01;28.43;;;16.00;;
16254;SDS011;8235;52.198;9.904;2022-10-31T07:31:28;26.27;;;15.60;;
16254;SDS011;8235;52.198;9.904;2022-10-31T07:33:54;28.17;;;15.90;;
16254;SDS011;8235;52.198;9.904;2022-10-31T07:36:20;32.83;;;17.10;;
16254;SDS011;8235;52.198;9.904;2022-10-31T07:38:47;30.60;;;16.10;;
16254;SDS011;8235;52.198;9.904;2022-10-31T07:41:13;31.50;;;16.80;;
16254;SDS011;8235;52.198;9.904;2022-10-31T07:43:41;36.80;;;17.10;;
16254;SDS011;8235;52.198;9.904;2022-10-31T07:46:08;31.03;;;16.53;;
16254;SDS011;8235;52.198;9.904;2022-10-31T07:48:36;27.27;;;16.17;;
16254;SDS011;8235;52.198;9.904;2022-10-31T07:51:02;28.60;;;15.80;;
16254;SDS011;8235;52.198;9.904;2022-10-31T07:53:29;31.00;;;16.70;;
16254;SDS011;8235;52.198;9.904;2022-10-31T07:55:56;28.17;;;16.83;;
16254;SDS011;8235;52.198;9.904;2022-10-31T07:58:22;32.47;;;17.67;;
16254;SDS011;8235;52.198;9.904;2022-10-31T08:00:51;30.00;;;16.77;;
16254;SDS011;8235;52.198;9.904;2022-10-31T08:03:18;29.23;;;17.20;;
16254;SDS011;8235;52.198;9.904;2022-10-31T08:05:45;31.10;;;16.60;;
16254;SDS011;8235;52.198;9.904;2022-10-31T08:08:12;35.80;;;18.40;;
16254;SDS011;8235;52.198;9.904;2022-10-31T08:10:39;34.37;;;19.83;;
16254;SDS011;8235;52.198;9.904;2022-10-31T08:13:08;29.87;;;17.87;;
16254;SDS011;8235;52.198;9.904;2022-10-31T08:15:35;27.97;;;15.87;;
16254;SDS011;8235;52.198;9.904;2022-10-31T08:18:06;26.00;;;16.07;;
16254;SDS011;8235;52.198;9.904;2022-10-31T08:20:36;27.87;;;15.67;;
16254;SDS011;8235;52.198;9.904;2022-10-31T08:23:03;29.00;;;17.17;;
16254;SDS011;8235;52.198;9.904;2022-10-31T08:25:31;25.63;;;16.70;;
16254;SDS011;8235;52.198;9.904;2022-10-31T08:27:59;27.07;;;16.03;;
16254;SDS011;8235;52.198;9.904;2022-10-31T08:30:26;31.67;;;17.33;;
16254;SDS011;8235;52.198;9.904;2022-10-31T08:33:01;31.37;;;16.83;;
16254;SDS011;8235;52.198;9.904;2022-10-31T08:35:30;31.13;;;16.73;;
16254;SDS011;8235;52.198;9.904;2022-10-31T08:37:57;27.50;;;17.40;;
16254;SDS011;8235;52.198;9.904;2022-10-31T08:40:25;29.20;;;16.93;;
16254;SDS011;8235;52.198;9.904;2022-10-31T08:42:56;27.13;;;16.73;;
16254;SDS011;8235;52.198;9.904;2022-10-31T08:45:23;27.87;;;16.47;;
16254;SDS011;8235;52.198;9.904;2022-10-31T08:47:50;27.27;;;16.97;;
16254;SDS011;8235;52.198;9.904;2022-10-31T08:50:16;28.27;;;17.00;;
16254;SDS011;8235;52.198;9.904;2022-10-31T08:52:45;25.57;;;15.90;;
16254;SDS011;8235;52.198;9.904;2022-10-31T08:55:11;27.23;;;17.07;;
16254;SDS011;8235;52.198;9.904;2022-10-31T08:57:38;27.20;;;17.70;;
16254;SDS011;8235;52.198;9.904;2022-10-31T09:00:05;28.23;;;16.57;;
16254;SDS011;8235;52.198;9.904;2022-10-31T09:02:32;31.30;;;18.63;;
16254;SDS011;8235;52.198;9.904;2022-10-31T09:04:59;34.60;;;17.73;;
16254;SDS011;8235;52.198;9.904;2022-10-31T09:07:25;33.13;;;17.60;;
16254;SDS011;8235;52.198;9.904;2022-10-31T09:09:53;27.20;;;17.57;;
16254;SDS011;8235;52.198;9.904;2022-10-31T09:12:21;30.80;;;16.70;;
16254;SDS011;8235;52.198;9.904;2022-10-31T09:14:48;27.13;;;17.60;;
16254;SDS011;8235;52.198;9.904;2022-10-31T09:17:15;33.03;;;17.53;;
16254;SDS011;8235;52.198;9.904;2022-10-31T09:19:41;25.43;;;16.33;;
16254;SDS011;8235;52.198;9.904;2022-10-31T09:22:08;28.90;;;16.90;;
16254;SDS011;8235;52.198;9.904;2022-10-31T09:24:34;28.47;;;17.50;;
16254;SDS011;8235;52.198;9.904;2022-10-31T09:27:02;29.13;;;17.17;;
16254;SDS011;8235;52.198;9.904;2022-10-31T09:29:28;35.40;;;17.67;;
16254;SDS011;8235;52.198;9.904;2022-10-31T09:31:55;30.00;;;16.07;;
16254;SDS011;8235;52.198;9.904;2022-10-31T09:34:22;30.07;;;16.17;;
16254;SDS011;8235;52.198;9.904;2022-10-31T09:36:49;27.83;;;16.20;;
16254;SDS011;8235;52.198;9.904;2022-10-31T09:39:15;29.30;;;16.43;;
16254;SDS011;8235;52.198;9.904;2022-10-31T09:41:51;29.67;;;15.70;;
16254;SDS011;8235;52.198;9.904;2022-10-31T09:44:30;23.77;;;15.43;;
16254;SDS011;8235;52.198;9.904;2022-10-31T09:47:08;25.23;;;15.03;;
16254;SDS011;8235;52.198;9.904;2022-10-31T09:49:47;28.10;;;15.73;;
16254;SDS011;8235;52.198;9.904;2022-10-31T09:52:26;25.93;;;15.63;;
16254;SDS011;8235;52.198;9.904;2022-10-31T09:54:57;24.90;;;14.00;;
16254;SDS011;8235;52.198;9.904;2022-10-31T09:57:29;24.37;;;14.13;;
16254;SDS011;8235;52.198;9.904;2022-10-31T09:59:59;27.03;;;14.47;;
16254;SDS011;8235;52.198;9.904;2022-10-31T10:02:27;21.30;;;12.40;;
16254;SDS011;8235;52.198;9.904;2022-10-31T10:04:59;21.53;;;12.60;;
16254;SDS011;8235;52.198;9.904;2022-10-31T10:07:32;19.10;;;12.37;;
16254;SDS011;8235;52.198;9.904;2022-10-31T10:10:09;20.47;;;13.37;;
16254;SDS011;8235;52.198;9.904;2022-10-31T10:12:44;23.67;;;12.53;;
16254;SDS011;8235;52.198;9.904;2022-10-31T10:15:37;24.57;;;12.47;;
16254;SDS011;8235;52.198;9.904;2022-10-31T10:18:20;25.03;;;14.10;;
16254;SDS011;8235;52.198;9.904;2022-10-31T10:20:58;22.67;;;13.60;;
16254;SDS011;8235;52.198;9.904;2022-10-31T10:23:41;22.30;;;12.80;;
16254;SDS011;8235;52.198;9.904;2022-10-31T10:26:20;23.23;;;12.33;;
16254;SDS011;8235;52.198;9.904;2022-10-31T10:28:48;20.23;;;13.00;;
16254;SDS011;8235;52.198;9.904;2022-10-31T10:31:21;25.30;;;13.30;;
16254;SDS011;8235;52.198;9.904;2022-10-31T10:33:55;24.50;;;13.13;;
16254;SDS011;8235;52.198;9.904;2022-10-31T10:36:28;19.17;;;12.57;;
16254;SDS011;8235;52.198;9.904;2022-10-31T10:39:00;23.63;;;12.33;;
16254;SDS011;8235;52.198;9.904;2022-10-31T10:41:31;22.27;;;12.47;;
16254;SDS011;8235;52.198;9.904;2022-10-31T10:44:00;20.07;;;12.53;;
16254;SDS011;8235;52.198;9.904;2022-10-31T10:46:29;22.57;;;12.70;;
16254;SDS011;8235;52.198;9.904;2022-10-31T10:49:23;22.77;;;12.77;;
16254;SDS011;8235;52.198;9.904;2022-10-31T10:51:57;22.07;;;12.00;;
16254;SDS011;8235;52.198;9.904;2022-10-31T10:54:39;19.27;;;11.77;;
16254;SDS011;8235;52.198;9.904;2022-10-31T10:57:16;17.77;;;11.40;;
16254;SDS011;8235;52.198;9.904;2022-10-31T10:59:48;17.93;;;10.47;;
16254;SDS011;8235;52.198;9.904;2022-10-31T11:02:18;20.90;;;10.83;;
16254;SDS011;8235;52.198;9.904;2022-10-31T11:04:47;16.63;;;10.27;;
16254;SDS011;8235;52.198;9.904;2022-10-31T11:07:17;19.50;;;11.13;;
16254;SDS011;8235;52.198;9.904;2022-10-31T11:09:44;17.07;;;10.40;;
16254;SDS011;8235;52.198;9.904;2022-10-31T11:12:16;17.77;;;9.53;;
16254;SDS011;8235;52.198;9.904;2022-10-31T11:14:47;25.00;;;9.90;;
16254;SDS011;8235;52.198;9.904;2022-10-31T11:17:19;20.17;;;8.60;;
16254;SDS011;8235;52.198;9.904;2022-10-31T11:19:59;13.73;;;8.77;;
16254;SDS011;8235;52.198;9.904;2022-10-31T11:22:27;14.33;;;8.47;;
16254;SDS011;8235;52.198;9.904;2022-10-31T11:24:53;18.17;;;8.93;;
16254;SDS011;8235;52.198;9.904;2022-10-31T11:27:20;13.70;;;7.97;;
16254;SDS011;8235;52.198;9.904;2022-10-31T11:29:48;11.70;;;8.13;;
16254;SDS011;8235;52.198;9.904;2022-10-31T11:32:17;14.43;;;8.13;;
16254;SDS011;8235;52.198;9.904;2022-10-31T11:34:48;15.03;;;8.40;;
16254;SDS011;8235;52.198;9.904;2022-10-31T11:37:18;14.33;;;8.60;;
16254;SDS011;8235;52.198;9.904;2022-10-31T11:39:48;15.83;;;8.87;;
16254;SDS011;8235;52.198;9.904;2022-10-31T11:42:18;13.47;;;7.60;;
16254;SDS011;8235;52.198;9.904;2022-10-31T11:44:47;11.23;;;7.00;;
16254;SDS011;8235;52.198;9.904;2022-10-31T11:47:16;15.37;;;8.43;;
16254;SDS011;8235;52.198;9.904;2022-10-31T11:49:47;11.37;;;7.23;;
16254;SDS011;8235;52.198;9.904;2022-10-31T11:52:15;15.23;;;8.67;;
16254;SDS011;8235;52.198;9.904;2022-10-31T11:54:45;15.50;;;8.00;;
16254;SDS011;8235;52.198;9.904;2022-10-31T11:57:22;15.37;;;8.10;;
16254;SDS011;8235;52.198;9.904;2022-10-31T11:59:53;13.77;;;7.40;;
16254;SDS011;8235;52.198;9.904;2022-10-31T12:02:21;13.47;;;8.53;;
16254;SDS011;8235;52.198;9.904;2022-10-31T12:04:51;16.33;;;8.50;;
16254;SDS011;8235;52.198;9.904;2022-10-31T12:07:26;14.73;;;8.23;;
16254;SDS011;8235;52.198;9.904;2022-10-31T12:09:53;14.00;;;8.23;;
16254;SDS011;8235;52.198;9.904;2022-10-31T12:15:31;14.97;;;8.73;;
16254;SDS011;8235;52.198;9.904;2022-10-31T12:18:03;14.73;;;8.67;;
16254;SDS011;8235;52.198;9.904;2022-10-31T12:20:47;13.33;;;8.20;;
16254;SDS011;8235;52.198;9.904;2022-10-31T12:23:25;14.47;;;8.90;;
16254;SDS011;8235;52.198;9.904;2022-10-31T12:26:04;9.57;;;7.00;;
16254;SDS011;8235;52.198;9.904;2022-10-31T12:28:51;13.13;;;7.17;;
16254;SDS011;8235;52.198;9.904;2022-10-31T12:31:33;13.27;;;8.20;;
16254;SDS011;8235;52.198;9.904;2022-10-31T12:34:16;12.90;;;7.77;;
16254;SDS011;8235;52.198;9.904;2022-10-31T12:36:59;12.27;;;7.40;;
16254;SDS011;8235;52.198;9.904;2022-10-31T12:39:37;13.37;;;7.80;;
16254;SDS011;8235;52.198;9.904;2022-10-31T12:42:10;15.73;;;8.13;;
16254;SDS011;8235;52.198;9.904;2022-10-31T12:44:50;18.00;;;8.63;;
16254;SDS011;8235;52.198;9.904;2022-10-31T12:47:36;10.47;;;8.13;;
16254;SDS011;8235;52.198;9.904;2022-10-31T12:50:16;13.97;;;8.67;;
16254;SDS011;8235;52.198;9.904;2022-10-31T12:52:59;11.77;;;8.37;;
16254;SDS011;8235;52.198;9.904;2022-10-31T12:55:37;13.10;;;7.90;;
16254;SDS011;8235;52.198;9.904;2022-10-31T12:58:14;13.67;;;8.17;;
16254;SDS011;8235;52.198;9.904;2022-10-31T13:00:47;14.43;;;8.83;;
16254;SDS011;8235;52.198;9.904;2022-10-31T13:03:20;16.07;;;7.93;;
16254;SDS011;8235;52.198;9.904;2022-10-31T13:05:51;17.73;;;9.13;;
16254;SDS011;8235;52.198;9.904;2022-10-31T13:08:26;19.90;;;9.10;;
16254;SDS011;8235;52.198;9.904;2022-10-31T13:11:02;14.53;;;8.93;;
16254;SDS011;8235;52.198;9.904;2022-10-31T13:13:35;13.00;;;8.93;;
16254;SDS011;8235;52.198;9.904;2022-10-31T13:16:08;17.20;;;9.03;;
16254;SDS011;8235;52.198;9.904;2022-10-31T13:18:40;16.93;;;9.20;;
16254;SDS011;8235;52.198;9.904;2022-10-31T13:21:15;21.13;;;10.07;;
16254;SDS011;8235;52.198;9.904;2022-10-31T13:23:48;22.43;;;10.07;;
16254;SDS011;8235;52.198;9.904;2022-10-31T13:26:18;18.70;;;9.73;;
16254;SDS011;8235;52.198;9.904;2022-10-31T13:28:54;17.00;;;9.83;;
16254;SDS011;8235;52.198;9.904;2022-10-31T13:31:27;21.47;;;9.97;;
16254;SDS011;8235;52.198;9.904;2022-10-31T13:33:57;20.30;;;10.73;;
16254;SDS011;8235;52.198;9.904;2022-10-31T13:36:29;18.93;;;10.07;;
16254;SDS011;8235;52.198;9.904;2022-10-31T13:39:03;18.30;;;10.53;;
16254;SDS011;8235;52.198;9.904;2022-10-31T13:41:42;18.03;;;10.70;;
16254;SDS011;8235;52.198;9.904;2022-10-31T13:44:14;17.13;;;11.07;;
16254;SDS011;8235;52.198;9.904;2022-10-31T13:46:42;18.83;;;10.57;;
16254;SDS011;8235;52.198;9.904;2022-10-31T13:52:05;19.03;;;9.77;;
16254;SDS011;8235;52.198;9.904;2022-10-31T13:54:40;16.30;;;10.23;;
16254;SDS011;8235;52.198;9.904;2022-10-31T13:57:12;15.47;;;9.40;;
16254;SDS011;8235;52.198;9.904;2022-10-31T13:59:46;15.73;;;8.40;;
16254;SDS011;8235;52.198;9.904;2022-10-31T14:02:15;14.73;;;8.70;;
16254;SDS011;8235;52.198;9.904;2022-10-31T14:04:44;20.63;;;8.73;;
16254;SDS011;8235;52.198;9.904;2022-10-31T14:07:13;14.93;;;8.47;;
16254;SDS011;8235;52.198;9.904;2022-10-31T14:09:50;13.70;;;7.93;;
16254;SDS011;8235;52.198;9.904;2022-10-31T14:12:23;15.30;;;8.40;;
16254;SDS011;8235;52.198;9.904;2022-10-31T14:14:53;14.70;;;7.57;;
16254;SDS011;8235;52.198;9.904;2022-10-31T14:17:23;11.67;;;8.03;;
16254;SDS011;8235;52.198;9.904;2022-10-31T14:20:03;12.23;;;7.37;;
16254;SDS011;8235;52.198;9.904;2022-10-31T14:22:50;14.17;;;8.10;;
16254;SDS011;8235;52.198;9.904;2022-10-31T14:25:28;16.57;;;7.60;;
16254;SDS011;8235;52.198;9.904;2022-10-31T14:28:00;13.83;;;6.83;;
16254;SDS011;8235;52.198;9.904;2022-10-31T14:30:29;13.87;;;7.17;;
16254;SDS011;8235;52.198;9.904;2022-10-31T14:32:57;14.40;;;6.70;;
16254;SDS011;8235;52.198;9.904;2022-10-31T14:38:26;10.03;;;6.70;;
16254;SDS011;8235;52.198;9.904;2022-10-31T14:41:18;10.00;;;6.57;;
16254;SDS011;8235;52.198;9.904;2022-10-31T14:44:03;15.63;;;7.10;;
16254;SDS011;8235;52.198;9.904;2022-10-31T14:46:56;13.13;;;6.30;;
16254;SDS011;8235;52.198;9.904;2022-10-31T14:49:41;11.33;;;6.70;;
16254;SDS011;8235;52.198;9.904;2022-10-31T14:52:27;12.47;;;6.57;;
16254;SDS011;8235;52.198;9.904;2022-10-31T14:54:54;12.87;;;6.70;;
16254;SDS011;8235;52.198;9.904;2022-10-31T14:57:29;13.97;;;7.07;;
16254;SDS011;8235;52.198;9.904;2022-10-31T14:59:59;14.17;;;6.57;;
16254;SDS011;8235;52.198;9.904;2022-10-31T15:02:30;14.60;;;7.67;;
16254;SDS011;8235;52.198;9.904;2022-10-31T15:05:01;13.03;;;7.37;;
16254;SDS011;8235;52.198;9.904;2022-10-31T15:07:32;10.57;;;6.93;;
16254;SDS011;8235;52.198;9.904;2022-10-31T15:09:59;11.77;;;7.50;;